Solana — WCY5602 — position and weather

sailwx.info

Track history (hours):
 
Tides and Currents Weather Stations Pressure Air Temp Water Temp Dewpoint Dewpoint Depression Visibility Wind Speed Wind Dir Waves Ship Positions

Solana

Owner: TAURUS MARINE, SAN FRANCISCO, CA. More information available from US FCC via Universal Licensing System and Coast Guard Vessel Documentation Center.

Last reported at 2017-Feb-28 04:33 UTC. Time now 2017-Feb-28 07:51 UTC.
Position N 37°48' W 122°21'.

Length 21 m; draft 3 m.

Type: Ship (hazmat cat A). MMSI: 366969740.

Date/timePositionNaut miles runAvg speedWind from/ knotsBaromVisibWave heightAir tempDewpointWater temp
2017-Feb-28 04:33N 37°48' W 122°21'2 1.8
2017-Feb-28 03:33N 37°49' W 122°19'7 6.7
2017-Feb-28 02:34N 37°54' W 122°25'10 9.0
2017-Feb-28 01:29N 38°03' W 122°20'7 2.4
2017-Feb-27 22:23N 38°03' W 122°10'5 0.9
2017-Feb-27 16:25N 38°05' W 122°16'3 0.1
2017-Feb-26 02:33N 38°03' W 122°17'4 4.3
2017-Feb-26 01:33N 38°02' W 122°22'5 5.1
2017-Feb-26 00:33N 37°57' W 122°26'4 4.2
2017-Feb-25 23:34N 37°53' W 122°25'6 6.4
2017-Feb-25 22:33N 37°47' W 122°23'0 0.5
2017-Feb-25 21:34N 37°46' W 122°23'0 0.0
2017-Feb-25 20:34N 37°46' W 122°23'0 0.0
2017-Feb-25 19:34N 37°46' W 122°23'0 0.0
2017-Feb-25 18:33N 37°46' W 122°23'0 0.0
2017-Feb-25 17:34N 37°46' W 122°23'0 0.0
2017-Feb-25 15:33N 37°46' W 122°23'0 0.0
2017-Feb-25 14:33N 37°46' W 122°23'0 0.0
2017-Feb-25 13:33N 37°46' W 122°23'0 0.0
2017-Feb-25 12:34N 37°46' W 122°23'0 0.0
2017-Feb-25 11:33N 37°46' W 122°23'0 0.0
2017-Feb-25 10:33N 37°46' W 122°23'1 0.1
2017-Feb-25 00:33N 37°47' W 122°23'9 9.3
2017-Feb-24 23:33N 37°56' W 122°26'1110.4
2017-Feb-24 22:33N 38°04' W 122°16'6 1.0
2017-Feb-24 16:20N 38°02' W 122°08'6 7.2
2017-Feb-24 15:33N 38°04' W 122°15'7 0.4
2017-Feb-23 19:11N 38°03' W 122°06'0 0.0
2017-Feb-23 18:32N 38°03' W 122°06'0 0.0
2017-Feb-23 17:33N 38°03' W 122°06'0 0.1
2017-Feb-23 15:27N 38°03' W 122°06'5 5.6
2017-Feb-23 14:31N 38°03' W 122°12'3 0.2
2017-Feb-23 01:06N 38°05' W 122°16'2 4.1
2017-Feb-23 00:33N 38°04' W 122°14'7 1.2
2017-Feb-22 19:08N 38°03' W 122°05'0 0.0
2017-Feb-22 16:22N 38°03' W 122°05'0 0.4
2017-Feb-22 15:25N 38°03' W 122°06'6 6.8
2017-Feb-22 14:33N 38°04' W 122°13'1 0.1
2017-Feb-22 01:29N 38°04' W 122°15'7 0.8
2017-Feb-21 16:18N 38°03' W 122°06'4 5.6
2017-Feb-21 15:33N 38°03' W 122°11'4 4.1
2017-Feb-21 14:33N 38°05' W 122°15'1 0.1
2017-Feb-21 00:24N 38°05' W 122°15'5 0.6
2017-Feb-20 15:03N 38°02' W 122°09'4 8.5
2017-Feb-20 14:33N 38°04' W 122°14'8 8.2
2017-Feb-20 13:33N 38°01' W 122°24'8 8.1
2017-Feb-20 12:34N 37°53' W 122°24'6 6.2
2017-Feb-20 11:34N 37°46' W 122°23'0 0.0
2017-Feb-20 00:30N 37°46' W 122°23'2 2.6
2017-Feb-19 23:33N 37°48' W 122°21'  
Track history (hours):
 
Tides and Currents Weather Stations Pressure Air Temp Water Temp Dewpoint Dewpoint Depression Visibility Wind Speed Wind Dir Waves Ship Positions

Solana

Owner: TAURUS MARINE, SAN FRANCISCO, CA. More information available from US FCC via Universal Licensing System and Coast Guard Vessel Documentation Center.

Last reported at 2017-Feb-28 04:33 UTC. Time now 2017-Feb-28 07:51 UTC.
Position N 37°48' W 122°21'.

Length 21 m; draft 3 m.

Type: Ship (hazmat cat A). MMSI: 366969740.

Date/timePositionNaut miles runAvg speedWind from/ knotsBaromVisibWave heightAir tempDewpointWater temp
2017-Feb-28 04:33N 37°48' W 122°21'2 1.8
2017-Feb-28 03:33N 37°49' W 122°19'7 6.7
2017-Feb-28 02:34N 37°54' W 122°25'10 9.0
2017-Feb-28 01:29N 38°03' W 122°20'7 2.4
2017-Feb-27 22:23N 38°03' W 122°10'5 0.9
2017-Feb-27 16:25N 38°05' W 122°16'3 0.1
2017-Feb-26 02:33N 38°03' W 122°17'4 4.3
2017-Feb-26 01:33N 38°02' W 122°22'5 5.1
2017-Feb-26 00:33N 37°57' W 122°26'4 4.2
2017-Feb-25 23:34N 37°53' W 122°25'6 6.4
2017-Feb-25 22:33N 37°47' W 122°23'0 0.5
2017-Feb-25 21:34N 37°46' W 122°23'0 0.0
2017-Feb-25 20:34N 37°46' W 122°23'0 0.0
2017-Feb-25 19:34N 37°46' W 122°23'0 0.0
2017-Feb-25 18:33N 37°46' W 122°23'0 0.0
2017-Feb-25 17:34N 37°46' W 122°23'0 0.0
2017-Feb-25 15:33N 37°46' W 122°23'0 0.0
2017-Feb-25 14:33N 37°46' W 122°23'0 0.0
2017-Feb-25 13:33N 37°46' W 122°23'0 0.0
2017-Feb-25 12:34N 37°46' W 122°23'0 0.0
2017-Feb-25 11:33N 37°46' W 122°23'0 0.0
2017-Feb-25 10:33N 37°46' W 122°23'1 0.1
2017-Feb-25 00:33N 37°47' W 122°23'9 9.3
2017-Feb-24 23:33N 37°56' W 122°26'1110.4
2017-Feb-24 22:33N 38°04' W 122°16'6 1.0
2017-Feb-24 16:20N 38°02' W 122°08'6 7.2
2017-Feb-24 15:33N 38°04' W 122°15'7 0.4
2017-Feb-23 19:11N 38°03' W 122°06'0 0.0
2017-Feb-23 18:32N 38°03' W 122°06'0 0.0
2017-Feb-23 17:33N 38°03' W 122°06'0 0.1
2017-Feb-23 15:27N 38°03' W 122°06'5 5.6
2017-Feb-23 14:31N 38°03' W 122°12'3 0.2
2017-Feb-23 01:06N 38°05' W 122°16'2 4.1
2017-Feb-23 00:33N 38°04' W 122°14'7 1.2
2017-Feb-22 19:08N 38°03' W 122°05'0 0.0
2017-Feb-22 16:22N 38°03' W 122°05'0 0.4
2017-Feb-22 15:25N 38°03' W 122°06'6 6.8
2017-Feb-22 14:33N 38°04' W 122°13'1 0.1
2017-Feb-22 01:29N 38°04' W 122°15'7 0.8
2017-Feb-21 16:18N 38°03' W 122°06'4 5.6
2017-Feb-21 15:33N 38°03' W 122°11'4 4.1
2017-Feb-21 14:33N 38°05' W 122°15'1 0.1
2017-Feb-21 00:24N 38°05' W 122°15'5 0.6
2017-Feb-20 15:03N 38°02' W 122°09'4 8.5
2017-Feb-20 14:33N 38°04' W 122°14'8 8.2
2017-Feb-20 13:33N 38°01' W 122°24'8 8.1
2017-Feb-20 12:34N 37°53' W 122°24'6 6.2
2017-Feb-20 11:34N 37°46' W 122°23'0 0.0
2017-Feb-20 00:30N 37°46' W 122°23'2 2.6
2017-Feb-19 23:33N 37°48' W 122°21'  

Dump ship's entire track history